Time;durP1;ratioP1;P1;durP2;ratioP2;P2;SDS_P1;SDS_P2;PMS_P1;PMS_P2;Temp;Humidity;BMP_temperature;BMP_pressure;BME280_temperature;BME280_humidity;BME280_pressure;Samples;Min_cycle;Max_cycle;Signal;HPM_P1;HPM_P2
2022/09/29 00:02:23;;;;;;;;;4.67;4.33;;;;;13.10;68.46;99426.56;5086556;27;45594;-52
2022/09/29 00:04:48;;;;;;;;;3.67;3.67;;;;;13.10;68.77;99431.88;5095540;27;46639;-54
2022/09/29 00:07:14;;;;;;;;;3.00;3.00;;;;;13.10;68.55;99434.56;5091216;27;46611;-52
2022/09/29 00:09:39;;;;;;;;;2.00;2.00;;;;;13.10;69.05;99431.88;5109349;27;45615;-55
2022/09/29 00:12:05;;;;;;;;;4.00;4.00;;;;;13.11;69.05;99434.44;5095877;27;45370;-56
2022/09/29 00:14:30;;;;;;;;;3.00;3.00;;;;;13.06;69.33;99427.81;5091978;27;46209;-53
2022/09/29 00:16:56;;;;;;;;;4.67;3.67;;;;;13.05;68.97;99418.94;5081977;27;45622;-55
2022/09/29 00:19:21;;;;;;;;;3.33;2.33;;;;;13.14;69.19;99430.66;5077014;27;45364;-59
2022/09/29 00:21:46;;;;;;;;;4.00;4.00;;;;;13.13;69.30;99426.28;5091057;27;45459;-58
2022/09/29 00:24:12;;;;;;;;;4.00;3.00;;;;;13.12;69.38;99427.25;5093412;27;45460;-54
2022/09/29 00:26:37;;;;;;;;;8.00;4.00;;;;;13.11;68.89;99422.91;5077744;27;45570;-53
2022/09/29 00:29:04;;;;;;;;;5.33;2.00;;;;;13.08;69.00;99425.84;5091116;27;45517;-53
2022/09/29 00:31:31;;;;;;;;;2.67;2.67;;;;;13.03;69.26;99420.91;5111551;27;45261;-56
2022/09/29 00:33:57;;;;;;;;;3.00;3.00;;;;;12.98;69.05;99415.94;5089763;27;47436;-59
2022/09/29 00:36:24;;;;;;;;;2.00;2.00;;;;;13.02;69.32;99418.34;5070736;27;45628;-57
2022/09/29 00:38:53;;;;;;;;;2.33;1.67;;;;;13.00;69.05;99416.66;5085456;27;45421;-56
2022/09/29 00:41:23;;;;;;;;;3.00;3.00;;;;;13.00;68.95;99416.66;5083277;27;45321;-56
2022/09/29 00:43:56;;;;;;;;;2.00;2.00;;;;;12.97;69.26;99422.25;5077516;27;45489;-56
2022/09/29 00:46:33;;;;;;;;;2.33;2.00;;;;;12.97;68.86;99414.25;5095128;27;45298;-56
2022/09/29 00:49:06;;;;;;;;;2.33;2.00;;;;;12.95;68.98;99418.88;5090699;27;45319;-55
2022/09/29 00:51:36;;;;;;;;;2.67;2.00;;;;;12.86;69.10;99403.63;5085633;27;45216;-53
2022/09/29 00:54:02;;;;;;;;;3.00;2.00;;;;;12.77;68.66;99391.09;5089406;27;45517;-53
2022/09/29 00:56:30;;;;;;;;;3.00;3.00;;;;;12.89;68.58;99414.06;5093840;27;45476;-53
2022/09/29 00:58:59;;;;;;;;;3.00;3.00;;;;;12.85;69.02;99407.28;5086403;27;45358;-56
2022/09/29 01:01:29;;;;;;;;;2.00;2.00;;;;;12.87;68.79;99407.13;5081714;27;45407;-56
2022/09/29 01:04:01;;;;;;;;;2.33;2.00;;;;;12.89;68.57;99411.41;5093296;27;46349;-54
2022/09/29 01:06:37;;;;;;;;;3.00;3.00;;;;;12.90;68.53;99415.75;5092879;27;45430;-58
2022/09/29 01:09:13;;;;;;;;;4.00;2.00;;;;;12.89;68.94;99407.84;5114622;27;45451;-56
2022/09/29 01:11:39;;;;;;;;;4.67;2.00;;;;;12.89;68.82;99411.41;5086324;27;45511;-54
2022/09/29 01:14:07;;;;;;;;;2.00;2.00;;;;;12.87;68.72;99405.31;5088061;27;46045;-56
2022/09/29 01:16:34;;;;;;;;;3.00;2.00;;;;;12.84;68.49;99400.25;5106385;27;45506;-51
2022/09/29 01:19:04;;;;;;;;;5.00;2.67;;;;;12.87;69.17;99410.66;5087613;27;45402;-55
2022/09/29 01:21:53;;;;;;;;;2.00;2.00;;;;;12.88;68.93;99392.81;5098932;27;45275;-57
2022/09/29 01:24:50;;;;;;;;;2.00;2.00;;;;;12.86;68.45;99398.28;5076281;27;46439;-53
2022/09/29 01:27:40;;;;;;;;;3.00;2.00;;;;;12.86;69.30;99390.28;5090363;27;45384;-56
2022/09/29 01:30:19;;;;;;;;;2.33;2.33;;;;;12.89;69.14;99389.16;5077096;27;45236;-58
2022/09/29 01:33:09;;;;;;;;;3.00;2.00;;;;;12.86;68.79;99382.28;5106457;27;45460;-55
2022/09/29 01:35:55;;;;;;;;;2.00;2.00;;;;;12.83;68.69;99379.03;5093857;27;46640;-59
2022/09/29 01:38:42;;;;;;;;;2.67;2.67;;;;;12.86;68.48;99371.59;5078632;27;45552;-55
2022/09/29 01:41:38;;;;;;;;;1.67;1.67;;;;;12.88;68.52;99384.81;5079829;27;45265;-57
2022/09/29 01:44:15;;;;;;;;;2.00;2.00;;;;;12.89;68.37;99381.16;5090368;27;46916;-56
2022/09/29 01:46:55;;;;;;;;;3.00;3.00;;;;;12.84;68.55;99392.25;5076921;27;46322;-52
2022/09/29 01:49:23;;;;;;;;;2.00;2.00;;;;;12.82;68.10;99386.19;5083354;27;47185;-58
2022/09/29 01:52:02;;;;;;;;;1.00;1.00;;;;;12.82;68.55;99386.19;5086757;27;45438;-60
2022/09/29 01:54:45;;;;;;;;;3.00;3.00;;;;;12.85;68.19;99387.75;5095080;27;45471;-59
2022/09/29 01:57:26;;;;;;;;;4.00;2.33;;;;;12.82;68.30;99385.34;5091496;27;45484;-57
2022/09/29 02:00:06;;;;;;;;;6.00;1.33;;;;;12.87;68.11;99389.31;5097739;27;45238;-58
2022/09/29 02:02:48;;;;;;;;;2.33;2.33;;;;;12.89;68.16;99398.06;5095823;27;45389;-61
2022/09/29 02:05:20;;;;;;;;;3.00;2.00;;;;;12.90;68.20;99389.06;5096600;27;45487;-61
2022/09/29 02:07:47;;;;;;;;;2.00;2.00;;;;;12.88;67.55;99406.16;5078949;27;46816;-60
2022/09/29 02:10:18;;;;;;;;;2.00;2.00;;;;;12.79;68.33;99396.28;5079421;27;46251;-60
2022/09/29 02:12:46;;;;;;;;;2.00;2.00;;;;;12.77;68.04;99393.75;5088647;27;45334;-60
2022/09/29 02:15:21;;;;;;;;;2.00;2.00;;;;;12.77;68.21;99407.09;5109431;27;45458;-60
2022/09/29 02:17:50;;;;;;;;;2.00;2.00;;;;;12.81;68.16;99405.84;5088603;27;46185;-57
2022/09/29 02:20:17;;;;;;;;;2.00;2.00;;;;;12.81;68.32;99397.84;5089609;27;45561;-58
2022/09/29 02:22:42;;;;;;;;;1.00;1.00;;;;;12.86;68.29;99394.78;5075367;27;45489;-57
2022/09/29 02:25:12;;;;;;;;;3.00;2.00;;;;;12.87;68.18;99399.13;5079829;27;45512;-58
2022/09/29 02:27:37;;;;;;;;;2.00;2.00;;;;;12.87;68.54;99394.66;5098875;27;45280;-56
2022/09/29 02:30:05;;;;;;;;;2.00;2.00;;;;;12.88;68.28;99399.00;5094392;27;45250;-58
2022/09/29 02:32:34;;;;;;;;;2.33;2.33;;;;;12.92;68.83;99395.13;5098420;27;45341;-60
2022/09/29 02:35:01;;;;;;;;;1.00;1.00;;;;;12.91;68.36;99388.09;5081454;27;45523;-60
2022/09/29 02:37:39;;;;;;;;;3.67;2.00;;;;;12.95;68.82;99396.69;5108194;27;46691;-59
2022/09/29 02:40:31;;;;;;;;;1.00;1.00;;;;;12.95;68.55;99392.19;5096768;27;45393;-58
2022/09/29 02:43:05;;;;;;;;;3.00;2.00;;;;;12.95;68.59;99392.19;5080063;27;45486;-57
2022/09/29 02:45:48;;;;;;;;;4.00;3.00;;;;;12.96;68.25;99390.38;5096680;27;45733;-53
2022/09/29 02:48:47;;;;;;;;;2.00;2.00;;;;;12.96;68.69;99387.69;5078887;27;45296;-51
2022/09/29 02:51:23;;;;;;;;;1.00;1.00;;;;;12.96;68.39;99382.34;5052601;27;45501;-54
2022/09/29 02:53:51;;;;;;;;;2.00;2.00;;;;;12.98;68.31;99381.25;5092824;27;45527;-55
2022/09/29 02:56:35;;;;;;;;;2.00;2.00;;;;;12.94;68.34;99379.81;5081944;27;45390;-57
2022/09/29 02:59:11;;;;;;;;;2.67;2.67;;;;;12.97;68.68;99384.03;5080098;27;45568;-60
2022/09/29 03:01:50;;;;;;;;;2.00;2.00;;;;;12.93;68.51;99374.63;5084486;27;45505;-59
2022/09/29 03:04:16;;;;;;;;;2.00;0.67;;;;;12.87;68.02;99362.63;5098968;27;45291;-59
2022/09/29 03:06:42;;;;;;;;;3.00;2.33;;;;;12.90;68.61;99378.41;5098073;27;45427;-59
2022/09/29 03:09:08;;;;;;;;;4.00;2.00;;;;;12.91;68.49;99369.41;5113440;27;45469;-53
2022/09/29 03:11:33;;;;;;;;;2.67;2.33;;;;;12.91;68.21;99368.56;5080294;27;45359;-55
2022/09/29 03:13:59;;;;;;;;;3.00;3.00;;;;;12.92;68.26;99375.59;5078875;27;45491;-55
2022/09/29 03:16:25;;;;;;;;;3.00;1.00;;;;;12.90;68.41;99366.88;5096538;27;45337;-59
2022/09/29 03:18:50;;;;;;;;;3.00;2.00;;;;;12.85;68.29;99375.25;5083084;27;46156;-51
2022/09/29 03:21:15;;;;;;;;;3.00;2.00;;;;;12.84;67.88;99364.72;5086972;27;45363;-55
2022/09/29 03:23:41;;;;;;;;;2.00;2.00;;;;;12.83;68.12;99382.56;5086240;27;45405;-58
2022/09/29 03:26:06;;;;;;;;;1.33;1.33;;;;;12.83;67.85;99369.22;5084457;27;45420;-58
2022/09/29 03:28:32;;;;;;;;;2.00;2.00;;;;;12.83;68.13;99379.88;5097800;27;46053;-55
2022/09/29 03:31:06;;;;;;;;;2.00;2.00;;;;;12.84;68.45;99367.38;5095128;27;45460;-52
2022/09/29 03:33:32;;;;;;;;;2.00;2.00;;;;;12.84;68.19;99373.56;5095886;27;45371;-58
2022/09/29 03:35:57;;;;;;;;;1.00;1.00;;;;;12.80;68.61;99366.81;5096288;27;45534;-56
2022/09/29 03:38:22;;;;;;;;;4.00;2.00;;;;;12.81;68.66;99373.84;5091440;27;45450;-53
2022/09/29 03:40:48;;;;;;;;;1.00;1.00;;;;;12.80;68.88;99382.81;5068305;27;45471;-53
2022/09/29 03:43:14;;;;;;;;;4.00;3.00;;;;;12.75;68.94;99369.00;5078354;27;45349;-57
2022/09/29 03:45:50;;;;;;;;;2.00;2.00;;;;;12.70;69.67;99366.72;5078669;27;45535;-54
2022/09/29 03:48:17;;;;;;;;;2.00;2.00;;;;;12.77;69.40;99372.41;5093838;27;46767;-57
2022/09/29 03:50:44;;;;;;;;;3.00;3.00;;;;;12.76;70.22;99370.72;5094500;27;46075;-56
2022/09/29 03:53:09;;;;;;;;;5.33;1.67;;;;;12.74;70.19;99369.13;5095189;27;45828;-56
2022/09/29 03:55:34;;;;;;;;;4.00;3.00;;;;;12.66;70.36;99361.78;5073455;27;45671;-58
2022/09/29 03:58:00;;;;;;;;;2.00;2.00;;;;;12.65;70.72;99373.44;5068305;27;45304;-57
2022/09/29 04:00:25;;;;;;;;;2.00;2.00;;;;;12.68;70.59;99383.84;5092369;27;45389;-55
2022/09/29 04:02:53;;;;;;;;;2.00;2.00;;;;;12.64;70.58;99369.09;5107835;27;45527;-59
2022/09/29 04:05:19;;;;;;;;;3.67;3.67;;;;;12.65;70.95;99382.28;5090690;27;45546;-55
2022/09/29 04:07:45;;;;;;;;;3.00;3.00;;;;;12.64;71.01;99379.75;5092566;27;46144;-61
2022/09/29 04:10:10;;;;;;;;;3.00;3.00;;;;;12.65;71.30;99373.44;5083269;27;45261;-53
2022/09/29 04:12:35;;;;;;;;;3.00;3.00;;;;;12.63;71.12;99380.69;5092599;27;45428;-56
2022/09/29 04:15:01;;;;;;;;;2.00;2.00;;;;;12.59;71.54;99381.94;5085387;27;45661;-58
2022/09/29 04:17:26;;;;;;;;;2.33;2.33;;;;;12.58;71.49;99378.44;5090116;27;45848;-53
2022/09/29 04:19:52;;;;;;;;;2.67;2.67;;;;;12.58;71.26;99377.59;5080548;27;45429;-59
2022/09/29 04:22:17;;;;;;;;;5.33;2.67;;;;;12.57;71.41;99375.88;5085474;27;45691;-53
2022/09/29 04:24:44;;;;;;;;;4.00;3.00;;;;;12.62;71.60;99385.19;5091764;27;45415;-53
2022/09/29 04:27:09;;;;;;;;;3.33;3.33;;;;;12.66;71.29;99388.47;5091291;27;46197;-56
2022/09/29 04:29:35;;;;;;;;;2.67;2.00;;;;;12.61;71.65;99382.66;5108654;27;45396;-58
2022/09/29 04:32:00;;;;;;;;;2.00;2.00;;;;;12.67;71.61;99384.81;5095387;27;45420;-61
2022/09/29 04:34:26;;;;;;;;;2.67;2.67;;;;;12.69;71.71;99394.38;5082790;27;45520;-59
2022/09/29 04:36:52;;;;;;;;;4.00;2.33;;;;;12.67;71.30;99391.00;5095728;27;45314;-60
2022/09/29 04:39:17;;;;;;;;;2.67;2.67;;;;;12.69;71.79;99396.19;5090886;27;45966;-54
2022/09/29 04:41:43;;;;;;;;;4.67;3.67;;;;;12.65;71.76;99389.44;5092903;27;45506;-59
2022/09/29 04:44:08;;;;;;;;;7.00;3.33;;;;;12.71;71.87;99394.25;5087529;27;45646;-58
2022/09/29 04:46:33;;;;;;;;;3.00;3.00;;;;;12.69;71.37;99389.03;5095861;27;45440;-60
2022/09/29 04:48:59;;;;;;;;;2.67;2.67;;;;;12.68;71.60;99383.84;5089912;27;45575;-61
2022/09/29 04:51:24;;;;;;;;;2.33;2.33;;;;;12.67;71.84;99383.00;5096597;27;45848;-61
2022/09/29 04:53:52;;;;;;;;;4.33;3.00;;;;;12.70;71.79;99382.72;5098756;27;45691;-58
2022/09/29 04:56:18;;;;;;;;;4.00;3.33;;;;;12.69;71.50;99386.38;5095458;27;45627;-57
2022/09/29 04:58:43;;;;;;;;;3.67;3.67;;;;;12.67;71.36;99393.66;5095544;27;45424;-52
2022/09/29 05:01:13;;;;;;;;;4.00;4.00;;;;;12.65;71.55;99395.63;5086875;27;45682;-53
2022/09/29 05:03:39;;;;;;;;;4.00;4.00;;;;;12.66;71.76;99391.13;5081058;27;45438;-57
2022/09/29 05:06:05;;;;;;;;;4.00;4.00;;;;;12.67;71.91;99383.00;5082524;27;45455;-56
2022/09/29 05:08:31;;;;;;;;;4.67;2.33;;;;;12.68;71.82;99394.50;5099935;27;45430;-57
2022/09/29 05:10:56;;;;;;;;;4.00;4.00;;;;;12.68;71.73;99392.69;5105095;27;45291;-57
2022/09/29 05:13:23;;;;;;;;;4.67;4.67;;;;;12.67;71.95;99391.00;5094243;27;45520;-57
2022/09/29 05:16:00;;;;;;;;;3.00;3.00;;;;;12.66;71.47;99388.47;5098785;27;46269;-58
2022/09/29 05:18:26;;;;;;;;;5.33;3.00;;;;;12.64;71.72;99390.41;5109417;27;45385;-56
2022/09/29 05:20:52;;;;;;;;;3.33;3.33;;;;;12.60;71.91;99387.13;5089433;27;47021;-53
2022/09/29 05:23:20;;;;;;;;;3.67;3.67;;;;;12.62;72.01;99387.84;5082993;27;45404;-57
2022/09/29 05:25:46;;;;;;;;;3.00;3.00;;;;;12.63;72.24;99392.25;5081862;27;46091;-52
2022/09/29 05:28:16;;;;;;;;;3.67;3.67;;;;;12.59;71.55;99389.94;5079425;27;45529;-53
2022/09/29 05:30:42;;;;;;;;;3.67;1.67;;;;;12.60;71.69;99402.31;5102282;27;45388;-53
2022/09/29 05:33:07;;;;;;;;;3.00;3.00;;;;;12.55;71.74;99399.19;5099785;27;45509;-55
2022/09/29 05:35:33;;;;;;;;;7.00;3.00;;;;;12.53;71.89;99398.47;5095928;27;46088;-53
2022/09/29 05:37:58;;;;;;;;;2.33;2.33;;;;;12.53;71.85;99403.81;5093297;27;45464;-57
2022/09/29 05:40:24;;;;;;;;;6.00;3.00;;;;;12.52;72.31;99410.09;5077787;27;45342;-58
2022/09/29 05:42:50;;;;;;;;;3.00;3.00;;;;;12.49;72.11;99410.34;5079500;27;45444;-58
2022/09/29 05:45:16;;;;;;;;;4.67;4.00;;;;;12.47;72.05;99414.97;5095232;27;46290;-57
2022/09/29 05:47:43;;;;;;;;;4.00;3.00;;;;;12.43;72.15;99408.19;5098606;27;45249;-55
2022/09/29 05:50:13;;;;;;;;;3.00;3.00;;;;;12.40;72.24;99412.81;5078995;27;45525;-59
2022/09/29 05:52:39;;;;;;;;;6.00;4.00;;;;;12.39;72.03;99408.44;5077060;27;45509;-59
2022/09/29 05:55:07;;;;;;;;;3.33;3.33;;;;;12.44;72.53;99416.06;5082923;27;45535;-53
2022/09/29 05:57:33;;;;;;;;;4.00;4.00;;;;;12.44;72.62;99412.56;5092663;27;46210;-56
2022/09/29 05:59:59;;;;;;;;;2.67;2.67;;;;;12.43;72.74;99416.19;5094405;27;45436;-60
2022/09/29 06:02:24;;;;;;;;;3.33;3.00;;;;;12.43;72.60;99416.19;5091000;27;45597;-64
2022/09/29 06:04:50;;;;;;;;;6.33;6.33;;;;;12.35;72.45;99399.00;5081685;27;46194;-60
2022/09/29 06:07:15;;;;;;;;;4.00;4.00;;;;;12.35;72.87;99403.47;5094088;27;45669;-61
2022/09/29 06:09:40;;;;;;;;;7.00;4.67;;;;;12.40;72.74;99415.47;5104824;27;45368;-60
2022/09/29 06:12:06;;;;;;;;;4.00;4.00;;;;;12.37;72.64;99413.06;5096731;27;45512;-60
2022/09/29 06:14:31;;;;;;;;;4.00;4.00;;;;;12.33;72.92;99400.94;5109016;27;46007;-56
2022/09/29 06:16:57;;;;;;;;;4.00;4.00;;;;;12.38;72.90;99413.91;5098750;27;45271;-62
2022/09/29 06:19:22;;;;;;;;;7.00;6.00;;;;;12.37;72.84;99417.56;5082936;27;45523;-60
2022/09/29 06:21:48;;;;;;;;;7.00;4.67;;;;;12.40;72.75;99423.47;5078463;28;45487;-59
2022/09/29 06:24:13;;;;;;;;;7.67;6.00;;;;;12.47;72.93;99426.47;5096727;27;47965;-64
2022/09/29 06:26:39;;;;;;;;;4.00;4.00;;;;;12.52;72.73;99420.78;5076877;27;45416;-66
2022/09/29 06:29:04;;;;;;;;;4.67;4.33;;;;;12.54;72.52;99413.50;5079008;27;45436;-57
2022/09/29 06:31:33;;;;;;;;;6.33;2.00;;;;;12.54;71.86;99421.50;5076822;27;45472;-56
2022/09/29 06:34:00;;;;;;;;;7.00;7.00;;;;;12.53;72.43;99427.81;5087739;27;45308;-64
2022/09/29 06:39:19;;;;;;;;;7.00;7.00;;;;;12.63;72.18;99424.25;5096267;27;45552;-58
2022/09/29 06:41:50;;;;;;;;;5.33;5.33;;;;;12.66;72.02;99417.81;5085303;27;45340;-53
2022/09/29 06:44:17;;;;;;;;;7.33;3.00;;;;;12.69;72.70;99425.56;5092747;27;45215;-59
2022/09/29 06:46:42;;;;;;;;;5.67;5.33;;;;;12.69;71.74;99420.22;5084537;27;45439;-58
2022/09/29 06:49:11;;;;;;;;;8.00;8.00;;;;;12.72;72.35;99417.28;5089716;27;45229;-53
2022/09/29 06:51:36;;;;;;;;;7.00;4.67;;;;;12.61;72.87;99398.66;5093681;27;45656;-56
2022/09/29 06:54:02;;;;;;;;;5.00;5.00;;;;;12.68;72.65;99407.84;5078901;27;46200;-58
2022/09/29 06:56:31;;;;;;;;;13.67;8.00;;;;;12.80;72.86;99417.50;5071456;27;46464;-56
2022/09/29 06:58:59;;;;;;;;;8.00;7.00;;;;;12.80;72.42;99409.50;5074275;27;45345;-56
2022/09/29 07:01:25;;;;;;;;;5.67;4.00;;;;;12.78;71.87;99416.78;5083494;27;45659;-53
2022/09/29 07:03:50;;;;;;;;;12.00;6.67;;;;;12.83;72.84;99425.25;5075867;27;45377;-56
2022/09/29 07:06:16;;;;;;;;;8.33;6.00;;;;;12.88;71.97;99428.34;5074313;27;45423;-56
2022/09/29 07:08:41;;;;;;;;;9.67;5.33;;;;;12.90;72.13;99417.56;5097849;27;45659;-58
2022/09/29 07:11:08;;;;;;;;;7.67;5.67;;;;;12.98;71.99;99429.28;5097981;27;45633;-56
2022/09/29 07:13:34;;;;;;;;;7.33;5.33;;;;;13.05;71.15;99440.31;5096877;27;45408;-53
2022/09/29 07:16:05;;;;;;;;;7.00;7.00;;;;;13.10;71.29;99437.22;5075749;27;45340;-55
2022/09/29 07:18:33;;;;;;;;;7.00;7.00;;;;;13.09;70.93;99427.53;5073746;28;45440;-53
2022/09/29 07:20:59;;;;;;;;;9.67;7.00;;;;;13.12;71.04;99446.78;5075023;27;45412;-59
2022/09/29 07:23:24;;;;;;;;;10.00;7.00;;;;;13.10;71.31;99438.06;5073094;27;45500;-59
2022/09/29 07:25:50;;;;;;;;;8.67;7.67;;;;;13.09;70.63;99431.03;5057383;28;45321;-64
2022/09/29 07:28:16;;;;;;;;;8.00;5.33;;;;;13.15;71.24;99456.34;5066289;27;45275;-54
2022/09/29 07:30:41;;;;;;;;;9.00;7.00;;;;;13.12;70.87;99445.94;5078125;27;45223;-58
2022/09/29 07:33:07;;;;;;;;;8.33;8.33;;;;;13.18;71.22;99457.00;5077356;28;46180;-68
2022/09/29 07:35:32;;;;;;;;;7.33;5.67;;;;;13.12;70.84;99453.97;5075499;27;45261;-60
2022/09/29 07:37:58;;;;;;;;;9.00;9.00;;;;;13.10;71.17;99463.91;5078012;27;45606;-62
2022/09/29 07:40:23;;;;;;;;;10.33;8.67;;;;;13.10;70.87;99470.09;5093599;27;45761;-58
2022/09/29 07:42:49;;;;;;;;;9.33;9.00;;;;;13.17;71.14;99465.97;5077035;27;45226;-56
2022/09/29 07:45:16;;;;;;;;;8.00;8.00;;;;;13.24;70.60;99471.66;5076173;27;45534;-57
2022/09/29 07:47:42;;;;;;;;;9.00;8.00;;;;;13.27;70.86;99461.53;5092684;27;45809;-54
2022/09/29 07:50:08;;;;;;;;;11.00;8.00;;;;;13.34;70.77;99467.22;5076931;27;45569;-60
2022/09/29 07:52:34;;;;;;;;;7.00;7.00;;;;;13.40;70.27;99468.50;5075706;27;46126;-58
2022/09/29 07:54:59;;;;;;;;;9.67;9.67;;;;;13.35;69.86;99468.06;5092329;27;45447;-58
2022/09/29 07:57:25;;;;;;;;;11.00;9.00;;;;;13.37;70.07;99472.28;5076924;27;45248;-53
2022/09/29 07:59:53;;;;;;;;;9.67;9.00;;;;;13.42;70.42;99475.44;5077165;28;45231;-61
2022/09/29 08:02:19;;;;;;;;;11.00;8.33;;;;;13.52;69.37;99470.97;5076675;27;45816;-59
2022/09/29 08:04:44;;;;;;;;;9.33;9.33;;;;;13.53;69.20;99479.84;5091497;27;45262;-59
2022/09/29 08:07:10;;;;;;;;;9.33;8.33;;;;;13.44;69.01;99470.81;5076805;28;45428;-59
2022/09/29 08:09:36;;;;;;;;;11.00;9.67;;;;;13.55;68.86;99486.75;5076977;27;45559;-58
2022/09/29 08:12:01;;;;;;;;;8.33;8.33;;;;;13.50;68.68;99483.63;5075560;27;46007;-60
2022/09/29 08:14:27;;;;;;;;;10.67;8.00;;;;;13.48;69.29;99484.72;5087089;27;45493;-64
2022/09/29 08:16:53;;;;;;;;;7.33;7.33;;;;;13.47;69.27;99475.88;5097964;27;45305;-63
2022/09/29 08:19:18;;;;;;;;;10.00;8.00;;;;;13.68;69.19;99496.41;5113547;27;45499;-65
2022/09/29 08:21:45;;;;;;;;;9.33;5.67;;;;;13.71;68.07;99494.28;5096922;27;45441;-58
2022/09/29 08:24:12;;;;;;;;;8.33;4.33;;;;;13.74;68.14;99495.84;5091315;27;45448;-63
2022/09/29 08:26:39;;;;;;;;;9.00;7.33;;;;;13.69;68.23;99498.94;5091099;27;45376;-55
2022/09/29 08:29:05;;;;;;;;;10.33;10.33;;;;;13.61;68.31;99505.91;5074346;27;45792;-67
2022/09/29 08:31:33;;;;;;;;;8.00;5.00;;;;;13.47;68.74;99478.53;5076211;27;45483;-61
2022/09/29 08:33:58;;;;;;;;;11.33;10.00;;;;;13.70;68.26;99513.13;5074021;27;45349;-63
2022/09/29 08:36:25;;;;;;;;;11.00;11.00;;;;;13.71;68.20;99498.78;5075342;28;45471;-61
2022/09/29 08:38:53;;;;;;;;;9.67;5.33;;;;;13.83;68.43;99519.09;5065709;27;46216;-60
2022/09/29 08:41:36;;;;;;;;;13.67;10.00;;;;;13.78;67.48;99515.97;5071749;27;45447;-58
2022/09/29 08:44:28;;;;;;;;;8.00;5.00;;;;;13.66;67.59;99522.38;5088583;27;45810;-63
2022/09/29 08:46:58;;;;;;;;;9.67;9.00;;;;;13.70;67.50;99515.81;5072463;27;45524;-56
2022/09/29 08:49:30;;;;;;;;;10.00;10.00;;;;;13.68;67.74;99518.63;5076317;27;45463;-58
2022/09/29 08:52:05;;;;;;;;;15.00;10.00;;;;;13.80;68.05;99522.03;5075658;27;45719;-55
2022/09/29 08:54:36;;;;;;;;;13.00;13.00;;;;;13.78;67.12;99524.00;5081306;27;45923;-56
2022/09/29 08:57:04;;;;;;;;;11.67;9.67;;;;;13.85;67.69;99526.00;5081901;27;45515;-58
2022/09/29 08:59:31;;;;;;;;;10.00;9.00;;;;;13.92;67.71;99531.66;5088781;27;46570;-61
2022/09/29 09:02:39;;;;;;;;;9.33;9.33;;;;;13.91;67.22;99535.31;5089380;27;46844;-57
2022/09/29 09:05:23;;;;;;;;;5.33;3.67;;;;;13.73;66.90;99535.09;5072446;27;45384;-55
2022/09/29 09:08:02;;;;;;;;;13.33;11.67;;;;;13.65;67.80;99536.72;5075719;28;45354;-60
2022/09/29 09:10:38;;;;;;;;;9.00;9.00;;;;;13.69;67.93;99548.84;5076129;27;45491;-60
2022/09/29 09:13:48;;;;;;;;;10.67;10.67;;;;;13.68;68.34;99550.69;5074042;28;45361;-51
2022/09/29 09:16:23;;;;;;;;;7.33;7.33;;;;;13.81;67.09;99550.47;5092944;27;45457;-54
2022/09/29 09:18:58;;;;;;;;;11.00;10.00;;;;;13.86;66.26;99535.72;5055304;28;45538;-64
2022/09/29 09:21:40;;;;;;;;;8.33;8.33;;;;;13.91;67.02;99537.97;5071030;28;45539;-55
2022/09/29 09:24:16;;;;;;;;;10.33;10.33;;;;;13.95;67.17;99541.25;5072627;27;46393;-60
2022/09/29 09:26:45;;;;;;;;;13.33;8.00;;;;;13.96;66.50;99533.09;5058707;28;45464;-63
2022/09/29 09:29:33;;;;;;;;;11.00;10.00;;;;;13.99;66.30;99543.53;5058893;28;45481;-58
2022/09/29 09:32:08;;;;;;;;;7.67;7.67;;;;;14.03;65.94;99544.94;5078066;27;45613;-55
2022/09/29 09:34:37;;;;;;;;;14.00;11.00;;;;;14.06;66.19;99542.03;5078881;27;46041;-58
2022/09/29 09:37:10;;;;;;;;;10.33;8.67;;;;;14.07;65.98;99538.38;5076903;27;45324;-57
2022/09/29 09:39:44;;;;;;;;;8.33;8.33;;;;;14.15;65.45;99546.53;5076633;27;45700;-56
2022/09/29 09:42:17;;;;;;;;;10.33;10.00;;;;;14.12;65.84;99544.16;5075361;27;45462;-53
2022/09/29 09:44:49;;;;;;;;;9.67;8.00;;;;;14.11;64.97;99541.63;5078609;27;45710;-60
2022/09/29 09:47:26;;;;;;;;;3.67;3.00;;;;;14.04;64.17;99538.63;5078230;27;45243;-60
2022/09/29 09:49:57;;;;;;;;;9.33;9.00;;;;;14.18;65.08;99553.44;5080072;27;45455;-58
2022/09/29 09:52:40;;;;;;;;;12.00;11.00;;;;;14.25;64.72;99553.78;5079462;27;45429;-59
2022/09/29 09:55:14;;;;;;;;;9.67;9.67;;;;;14.34;63.77;99553.81;5114800;27;46459;-59
2022/09/29 09:58:07;;;;;;;;;8.67;7.67;;;;;14.35;63.71;99536.78;5085491;27;45484;-57
2022/09/29 10:00:48;;;;;;;;;7.67;5.33;;;;;14.60;63.24;99559.56;5079368;27;45349;-56
2022/09/29 10:03:15;;;;;;;;;9.67;8.67;;;;;14.74;63.47;99543.13;5079615;27;45335;-56
2022/09/29 10:05:47;;;;;;;;;12.00;9.00;;;;;14.98;63.03;99550.78;5080097;27;46244;-58
2022/09/29 10:08:28;;;;;;;;;8.00;8.00;;;;;15.12;62.36;99554.88;5079581;27;45261;-61
2022/09/29 10:10:56;;;;;;;;;5.33;4.00;;;;;15.20;61.22;99552.31;5078730;27;45381;-59
2022/09/29 10:13:26;;;;;;;;;5.33;5.33;;;;;15.30;60.14;99547.81;5078701;27;45520;-60
2022/09/29 10:16:00;;;;;;;;;6.67;5.67;;;;;15.46;60.74;99551.75;5077920;27;46297;-58
2022/09/29 10:18:34;;;;;;;;;4.00;4.00;;;;;15.53;58.26;99556.41;5078214;27;45446;-56
2022/09/29 10:21:00;;;;;;;;;6.00;6.00;;;;;15.61;58.96;99555.69;5078198;27;45303;-60
2022/09/29 10:23:28;;;;;;;;;7.00;5.00;;;;;15.81;58.46;99560.06;5079809;27;46001;-59
2022/09/29 10:26:17;;;;;;;;;6.67;6.67;;;;;15.94;58.14;99562.44;5079027;27;46049;-60
2022/09/29 10:28:51;;;;;;;;;9.67;6.33;;;;;15.93;58.64;99555.38;5077999;27;45262;-60
2022/09/29 10:31:22;;;;;;;;;13.00;8.67;;;;;15.82;58.33;99553.69;5078737;27;45412;-56
2022/09/29 10:33:51;;;;;;;;;12.00;12.00;;;;;15.69;57.92;99569.25;5078403;27;45450;-58
2022/09/29 10:36:19;;;;;;;;;14.67;10.67;;;;;15.60;59.64;99562.06;5078264;27;45824;-59
2022/09/29 10:38:52;;;;;;;;;17.00;15.00;;;;;15.56;60.48;99565.97;5078341;27;45303;-55
2022/09/29 10:41:18;;;;;;;;;13.33;12.00;;;;;15.54;61.57;99566.13;5077840;27;45295;-58
2022/09/29 10:43:46;;;;;;;;;13.00;12.33;;;;;15.45;61.43;99577.69;5078147;27;45191;-56
2022/09/29 10:46:45;;;;;;;;;14.33;14.33;;;;;15.21;62.92;99585.28;5077420;27;45552;-56
2022/09/29 10:49:22;;;;;;;;;19.00;18.00;;;;;14.98;63.91;99574.88;5077712;28;45344;-55
2022/09/29 10:52:04;;;;;;;;;15.33;15.33;;;;;14.85;64.60;99594.84;5077982;27;45369;-57
2022/09/29 10:54:36;;;;;;;;;18.33;13.67;;;;;14.72;65.73;99585.25;5093413;27;45376;-59
2022/09/29 10:57:15;;;;;;;;;17.00;16.33;;;;;14.66;65.77;99591.13;5078062;27;45442;-56
2022/09/29 10:59:49;;;;;;;;;15.00;15.00;;;;;14.55;65.98;99599.25;5077416;27;45357;-56
2022/09/29 11:02:36;;;;;;;;;12.00;12.00;;;;;14.42;66.31;99602.13;5079085;27;45258;-56
2022/09/29 11:05:15;;;;;;;;;10.00;10.00;;;;;14.31;66.56;99604.03;5093862;27;45543;-58
2022/09/29 11:07:46;;;;;;;;;12.67;10.00;;;;;14.21;67.22;99619.22;5077451;28;45490;-54
2022/09/29 11:10:38;;;;;;;;;10.00;8.33;;;;;14.05;68.35;99628.53;5077480;27;45231;-60
2022/09/29 11:13:19;;;;;;;;;12.67;10.00;;;;;13.95;69.90;99627.66;5074818;27;45661;-61
2022/09/29 11:15:45;;;;;;;;;9.00;7.67;;;;;13.88;69.92;99621.09;5077745;27;45217;-64
2022/09/29 11:18:21;;;;;;;;;8.33;6.67;;;;;13.78;69.46;99617.50;5077106;27;45356;-55
2022/09/29 11:20:59;;;;;;;;;7.00;7.00;;;;;13.77;69.50;99629.19;5077186;27;45476;-58
2022/09/29 11:23:50;;;;;;;;;7.67;4.33;;;;;13.69;67.92;99631.69;5077604;28;45487;-55
2022/09/29 11:26:23;;;;;;;;;7.00;5.00;;;;;13.70;68.36;99633.38;5077480;27;45595;-56
2022/09/29 11:29:03;;;;;;;;;11.00;7.00;;;;;13.75;67.83;99636.50;5076927;27;46491;-60
2022/09/29 11:31:47;;;;;;;;;12.33;9.00;;;;;13.74;68.20;99632.97;5077029;27;45483;-58
2022/09/29 11:34:45;;;;;;;;;18.33;17.67;;;;;13.75;67.90;99625.81;5076992;27;45431;-61
2022/09/29 11:37:13;;;;;;;;;10.00;8.00;;;;;13.78;67.72;99630.88;5076874;28;45488;-60
2022/09/29 11:39:38;;;;;;;;;4.00;4.00;;;;;13.78;67.03;99636.22;5077317;27;47202;-56
2022/09/29 11:42:19;;;;;;;;;4.00;4.00;;;;;13.76;67.26;99643.53;5077248;27;45308;-54
2022/09/29 11:45:00;;;;;;;;;3.67;3.33;;;;;13.79;67.40;99643.25;5076170;28;45919;-56
2022/09/29 11:48:32;;;;;;;;;4.00;3.33;;;;;13.81;66.36;99652.03;5076955;28;45558;-56
2022/09/29 11:51:27;;;;;;;;;5.00;4.00;;;;;13.90;67.23;99659.25;5034935;28;45406;-55
2022/09/29 11:54:19;;;;;;;;;4.00;4.00;;;;;13.90;66.74;99661.91;5035103;28;45409;-61